Indira Gandhi International Airport
VIDP : now visible

Airfield :











YOU CAN JOIN US ON...

 
LOGIN :

Register | Disclaimer

   EN    FR    IT 

 









Legend :    VFR   Marginal VFR   IFR   Intensive IFR   Very Intensive IFR
Visi :
Ceiling :
>= 8 km
>= 3000ft
5 to 8 km
1000 to 3000 ft
1500m to 5 km
500 to 1000 ft
800 to 1500m
200 to 500 ft
< 800m
< 200 ft
Symbols :   Thunderstorms  Fog  Heavy snow  Heavy precipitations  Wind > 20 kt






- Airport Elevation : 777 ft
- IATA code : DEL


VIDP - Indira Gandhi International

CURRENT METAR :
  • 251100Z 30006KT 3500 HZ FEW100 19/05 Q1014 BECMG 3000

EXPIRED METARs :
  • 251030Z 29004KT 4000 HZ FEW100 19/05 Q1014 NOSIG
  • 251000Z 28005KT 4000 HZ FEW100 19/05 Q1014 NOSIG
  • 250930Z 28006KT 3500 HZ FEW100 19/04 Q1015 NOSIG
  • 250900Z 30007KT 2800 HZ FEW100 19/04 Q1015 BECMG 3000 HZ
  • 250830Z 30005KT 2500 HZ NSC 19/04 Q1015 NOSIG

TAF TAF VIDP
Valid from the 25 at 09:00 until the 25 at 18:00 UTC


250800Z 2509/2518 32008KT 3500 HZ FEW100
BECMG 2515/2517 11005KT 2500 HZ BR SCT100



MET'MAP, your aeronautical weather chart ! - Copyright ORBIFLY December 2007 - Disclaimer

ORBIFLY MET'MAP TEAM :

Programming & Development : Alexandra Zaïnal
Concept & original design : Baudouin d'Aumeries
Assistance for programming : Marc-Olivier Méhu
Technical & hardware support : Manuel Goepfert

Contact : metmap@orbifly.com




SOURCES & CREDITS :

   NOAA       Earth
Advisory